createdAt,value
2022-11-16T00:00:30.094Z,100059.69
2022-11-16T00:03:32.629Z,100053.53
2022-11-16T00:06:34.190Z,100044.69
2022-11-16T00:09:36.091Z,100047.34
2022-11-16T00:12:38.692Z,100043.00
2022-11-16T00:15:40.221Z,100044.69
2022-11-16T00:18:42.032Z,100036.69
2022-11-16T00:21:43.679Z,100043.00
2022-11-16T00:24:45.220Z,100044.81
2022-11-16T00:27:46.750Z,100041.31
2022-11-16T00:30:48.287Z,100039.50
2022-11-16T00:33:50.360Z,100034.31
2022-11-16T00:36:52.184Z,100035.25
2022-11-16T00:39:53.740Z,100030.88
2022-11-16T00:42:55.263Z,100026.66
2022-11-16T00:45:56.860Z,100023.16
2022-11-16T00:48:58.460Z,100019.66
2022-11-16T00:52:00.013Z,100018.81
2022-11-16T00:55:01.682Z,100023.28
2022-11-16T00:58:03.332Z,100015.41
2022-11-16T01:01:07.385Z,100005.72
2022-11-16T01:04:08.975Z,100003.19
2022-11-16T01:07:10.543Z,99998.13
2022-11-16T01:10:15.987Z,99999.94
2022-11-16T01:13:17.515Z,99996.53
2022-11-16T01:16:20.732Z,99994.84
2022-11-16T01:19:22.341Z,100000.16
2022-11-16T01:22:23.943Z,100002.09
2022-11-16T01:25:25.499Z,99989.03
2022-11-16T01:28:28.510Z,99988.22
2022-11-16T01:31:31.417Z,99990.00
2022-11-16T01:34:33.127Z,99983.00
2022-11-16T01:37:34.970Z,99976.94
2022-11-16T01:40:37.542Z,99982.25
2022-11-16T01:44:27.259Z,99972.47
2022-11-16T01:47:28.908Z,99970.91
2022-11-16T01:50:30.654Z,99966.66
2022-11-16T01:53:32.251Z,99960.50
2022-11-16T01:56:36.600Z,99973.81
2022-11-16T01:59:39.246Z,99955.41
2022-11-16T02:02:41.525Z,99955.41
2022-11-16T02:05:56.912Z,99955.41
2022-11-16T02:09:49.881Z,99959.91
2022-11-16T02:13:13.237Z,99949.50
2022-11-16T02:16:40.248Z,99940.81
2022-11-16T02:19:44.826Z,99941.03
2022-11-16T02:23:17.467Z,99938.47
2022-11-16T02:26:22.040Z,99949.38
2022-11-16T02:29:40.182Z,99938.97
2022-11-16T02:32:47.779Z,99940.78
2022-11-16T02:35:52.481Z,99939.22
2022-11-16T02:39:13.683Z,99939.34
2022-11-16T02:42:22.239Z,99942.09
2022-11-16T02:45:27.941Z,99941.25
2022-11-16T02:48:35.860Z,99938.72
2022-11-16T02:51:40.017Z,99938.00
2022-11-16T02:54:41.642Z,99946.84
2022-11-16T02:57:53.647Z,99939.94
2022-11-16T03:01:03.357Z,99934.72
2022-11-16T03:04:13.888Z,99938.72
2022-11-16T03:07:18.819Z,99945.13
2022-11-16T03:10:40.147Z,99936.53
2022-11-16T03:13:42.501Z,99935.19
2022-11-16T03:16:48.784Z,99939.91
2022-11-16T03:19:56.365Z,99943.75
2022-11-16T03:23:01.924Z,99934.31
2022-11-16T03:26:08.468Z,99926.81
2022-11-16T03:29:47.032Z,99928.00
2022-11-16T03:33:02.128Z,99937.28
2022-11-16T03:36:21.358Z,99937.75
2022-11-16T03:39:29.146Z,99928.19
2022-11-16T03:42:31.868Z,99934.69
2022-11-16T03:45:33.960Z,99936.59
2022-11-16T03:48:37.076Z,99936.97
2022-11-16T03:51:41.983Z,99933.69
2022-11-16T03:54:43.923Z,99923.31
2022-11-16T03:57:45.516Z,99930.78
2022-11-16T04:00:47.145Z,99934.59
2022-11-16T04:03:48.791Z,99926.97
2022-11-16T04:07:08.812Z,99929.97
2022-11-16T04:10:29.481Z,99922.47
2022-11-16T04:13:52.576Z,99921.13
2022-11-16T04:17:12.928Z,99909.16
2022-11-16T04:20:34.063Z,99914.88
2022-11-16T04:23:54.012Z,99922.47
2022-11-16T04:27:19.464Z,99915.78
2022-11-16T04:30:21.152Z,99918.78
2022-11-16T04:33:41.747Z,99907.53
2022-11-16T04:37:01.732Z,99899.91
2022-11-16T04:40:04.392Z,99897.47
2022-11-16T04:43:06.562Z,99885.41
2022-11-16T04:46:26.435Z,99890.19
2022-11-16T04:49:28.202Z,99901.16
2022-11-16T04:52:29.751Z,99900.41
2022-11-16T04:55:31.427Z,99904.34
2022-11-16T04:58:33.291Z,99893.00
2022-11-16T05:01:53.823Z,99888.84
2022-11-16T05:04:55.559Z,99891.84
2022-11-16T05:07:57.116Z,99888.59
2022-11-16T05:10:58.658Z,99893.25
2022-11-16T05:14:00.293Z,99888.28
2022-11-16T05:17:01.784Z,99874.28
2022-11-16T05:20:22.310Z,99870.22
2022-11-16T05:23:42.123Z,99875.00
2022-11-16T05:26:43.676Z,99870.75
2022-11-16T05:29:46.025Z,99860.28
2022-11-16T05:32:47.639Z,99865.66
2022-11-16T05:35:52.277Z,99874.69
2022-11-16T05:38:56.232Z,99878.41
2022-11-16T05:41:58.278Z,99873.09
2022-11-16T05:44:59.880Z,99875.88
2022-11-16T05:48:01.532Z,99872.50
2022-11-16T05:51:03.187Z,99866.53
2022-11-16T05:54:05.455Z,99866.66
2022-11-16T05:57:07.004Z,99864.94
2022-11-16T06:00:09.188Z,99872.16
2022-11-16T06:03:10.785Z,99865.16
2022-11-16T06:06:12.450Z,99872.25
2022-11-16T06:09:14.462Z,99873.09
2022-11-16T06:12:16.379Z,99886.47
2022-11-16T06:15:17.970Z,99884.75
2022-11-16T06:18:19.755Z,99879.72
2022-11-16T06:21:21.303Z,99881.59
2022-11-16T06:24:22.843Z,99884.34
2022-11-16T06:27:24.363Z,99888.78
2022-11-16T06:30:26.383Z,99887.00
2022-11-16T06:33:32.344Z,99887.13
2022-11-16T06:36:35.347Z,99882.44
2022-11-16T06:39:36.839Z,99886.06
2022-11-16T06:42:38.520Z,99890.50
2022-11-16T06:45:40.219Z,99883.50
2022-11-16T06:48:41.822Z,99893.38
2022-11-16T06:51:43.414Z,99890.91
2022-11-16T06:54:44.982Z,99889.25
2022-11-16T06:57:46.661Z,99888.47
2022-11-16T07:00:48.288Z,99901.84
2022-11-16T07:03:49.808Z,99907.25
2022-11-16T07:06:51.449Z,99903.94
2022-11-16T07:09:52.972Z,99909.44
2022-11-16T07:12:54.591Z,99909.66
2022-11-16T07:16:01.119Z,99906.25
2022-11-16T07:19:02.783Z,99909.09
2022-11-16T07:22:04.405Z,99911.03
2022-11-16T07:25:06.570Z,99928.94
2022-11-16T07:28:08.130Z,99929.00
2022-11-16T07:31:11.917Z,99933.56
2022-11-16T07:34:13.418Z,99930.06
2022-11-16T07:37:14.983Z,99943.41
2022-11-16T07:40:16.595Z,99948.84
2022-11-16T07:43:18.131Z,99948.16
2022-11-16T07:46:45.914Z,99949.34
2022-11-16T07:49:43.628Z,99955.69
2022-11-16T07:52:48.043Z,99957.56
2022-11-16T07:55:53.758Z,99960.16
2022-11-16T07:58:55.289Z,99959.19
2022-11-16T08:01:57.201Z,99972.66
2022-11-16T08:04:58.919Z,99976.56
2022-11-16T08:08:00.472Z,99980.34
2022-11-16T08:11:04.216Z,99982.22
2022-11-16T08:14:05.755Z,99992.94
2022-11-16T08:17:08.446Z,99991.03
2022-11-16T08:20:10.273Z,99992.75
2022-11-16T08:23:11.924Z,99992.06
2022-11-16T08:26:19.285Z,99989.63
2022-11-16T08:29:20.920Z,100002.97
2022-11-16T08:32:22.797Z,100002.22
2022-11-16T08:35:24.387Z,99999.66
2022-11-16T08:38:25.951Z,100006.84
2022-11-16T08:41:27.555Z,100005.19
2022-11-16T08:44:29.158Z,100007.03
2022-11-16T08:47:31.795Z,100008.00
2022-11-16T08:50:44.208Z,100008.09
2022-11-16T08:53:59.106Z,100000.38
2022-11-16T08:57:00.732Z,100011.03
2022-11-16T09:00:02.839Z,100011.91
2022-11-16T09:03:04.415Z,100012.00
2022-11-16T09:06:08.114Z,100016.44
2022-11-16T09:09:09.683Z,100017.38
2022-11-16T09:12:11.344Z,100019.16
2022-11-16T09:15:12.887Z,100023.72
2022-11-16T09:18:14.491Z,100014.94
2022-11-16T09:21:29.616Z,100018.44
2022-11-16T09:24:31.540Z,100029.75
2022-11-16T09:27:33.071Z,100027.97
2022-11-16T09:30:34.659Z,100037.69
2022-11-16T09:33:36.771Z,100037.69
2022-11-16T09:36:38.511Z,100038.66
2022-11-16T09:39:40.220Z,100036.00
2022-11-16T09:43:10.899Z,100043.34
2022-11-16T09:46:45.956Z,100039.84
2022-11-16T09:49:54.150Z,100040.91
2022-11-16T09:53:06.433Z,100045.44
2022-11-16T09:56:21.906Z,100042.06
2022-11-16T09:59:26.975Z,100041.31
2022-11-16T10:02:44.204Z,100046.78
2022-11-16T10:05:59.787Z,100046.91
2022-11-16T10:09:01.453Z,100044.31
2022-11-16T10:12:28.560Z,100046.97
2022-11-16T10:15:30.075Z,100045.38
2022-11-16T10:18:43.762Z,100052.44
2022-11-16T10:22:00.669Z,100048.97
2022-11-16T10:25:21.136Z,100048.13
2022-11-16T10:28:28.748Z,100058.72
2022-11-16T10:31:51.455Z,100063.03
2022-11-16T10:35:11.851Z,100061.44
2022-11-16T10:38:15.852Z,100057.00
2022-11-16T10:41:29.467Z,100057.09
2022-11-16T10:44:42.075Z,100054.53
2022-11-16T10:48:12.828Z,100046.59
2022-11-16T10:51:14.375Z,100043.13
2022-11-16T10:54:17.857Z,100047.47
2022-11-16T10:57:19.903Z,100051.69
2022-11-16T11:00:39.069Z,100049.06
2022-11-16T11:03:40.624Z,100043.03
2022-11-16T11:06:43.088Z,100040.38
2022-11-16T11:09:55.039Z,100037.72
2022-11-16T11:13:11.510Z,100043.75
2022-11-16T11:16:18.315Z,100038.47
2022-11-16T11:19:28.491Z,100037.63
2022-11-16T11:22:35.931Z,100029.59
2022-11-16T11:25:41.752Z,100035.59
2022-11-16T11:28:47.973Z,100038.19
2022-11-16T11:31:52.788Z,100040.06
2022-11-16T11:34:56.408Z,100035.72
2022-11-16T11:38:07.478Z,100038.47
2022-11-16T11:41:18.955Z,100034.97
2022-11-16T11:44:20.746Z,100030.63
2022-11-16T11:51:09.404Z,100031.47
2022-11-16T11:54:23.194Z,100038.66
2022-11-16T11:57:25.772Z,100033.38
2022-11-16T12:00:30.095Z,100035.16
2022-11-16T12:04:05.968Z,100031.75
2022-11-16T12:07:42.375Z,100025.72
2022-11-16T12:10:52.635Z,100027.53
2022-11-16T12:14:04.083Z,100023.91
2022-11-16T12:17:33.266Z,100019.47
2022-11-16T12:20:49.827Z,100025.72
2022-11-16T12:24:26.776Z,100033.75
2022-11-16T12:27:40.379Z,100025.91
2022-11-16T12:31:12.966Z,100031.22
2022-11-16T12:34:20.543Z,100032.13
2022-11-16T12:37:46.764Z,100034.03
2022-11-16T12:41:25.582Z,100029.69
2022-11-16T12:44:48.427Z,100031.50
2022-11-16T12:48:07.819Z,100037.72
2022-11-16T12:51:37.229Z,100038.66
2022-11-16T12:58:36.599Z,100042.56
2022-11-16T13:01:47.777Z,100040.00
2022-11-16T13:05:03.503Z,100044.34
2022-11-16T13:08:32.500Z,100038.22
2022-11-16T13:11:42.454Z,100040.97
2022-11-16T13:14:48.089Z,100041.25
2022-11-16T13:17:55.709Z,100034.25
2022-11-16T13:21:39.299Z,100032.66
2022-11-16T13:24:46.607Z,100029.34
2022-11-16T13:27:52.887Z,100027.72
2022-11-16T13:31:20.564Z,100031.50
2022-11-16T13:34:26.222Z,100033.38
2022-11-16T13:37:36.693Z,100036.31
2022-11-16T13:40:38.282Z,100032.94
2022-11-16T13:43:48.577Z,100030.34
2022-11-16T13:46:56.139Z,100030.34
2022-11-16T13:50:01.569Z,100023.38
2022-11-16T13:56:48.837Z,100024.59
2022-11-16T14:00:07.837Z,100024.78
2022-11-16T14:03:15.352Z,100032.81
2022-11-16T14:06:19.889Z,100026.97
2022-11-16T14:09:43.992Z,100024.13
2022-11-16T14:12:50.163Z,100024.31
2022-11-16T14:16:17.820Z,100028.38
2022-11-16T14:19:54.517Z,100035.06
2022-11-16T14:23:12.028Z,100039.78
2022-11-16T14:26:22.348Z,100035.00
2022-11-16T14:29:51.599Z,100033.56
2022-11-16T14:32:56.139Z,100038.28
2022-11-16T14:35:58.487Z,100054.44
2022-11-16T14:39:34.394Z,100047.72
2022-11-16T14:43:01.887Z,100047.16
2022-11-16T14:46:10.042Z,100052.53
2022-11-16T14:49:16.208Z,100053.47
2022-11-16T14:52:22.311Z,100052.72
2022-11-16T14:55:26.257Z,100046.69
2022-11-16T14:58:28.855Z,100046.75
2022-11-16T15:01:35.812Z,100037.13
2022-11-16T15:04:38.751Z,100043.34
2022-11-16T15:07:43.141Z,100042.50
2022-11-16T15:10:51.094Z,100039.97
2022-11-16T15:13:55.006Z,100032.22
2022-11-16T15:16:57.773Z,100039.22
2022-11-16T15:20:02.272Z,100041.84
2022-11-16T15:23:13.115Z,100041.84
2022-11-16T15:26:21.009Z,100041.00
2022-11-16T15:29:24.743Z,100037.38
2022-11-16T15:32:26.344Z,100033.06
2022-11-16T15:35:32.606Z,100041.00
2022-11-16T15:38:37.625Z,100045.41
2022-11-16T15:41:39.932Z,100049.78
2022-11-16T15:44:43.190Z,100049.78
2022-11-16T15:47:47.135Z,100048.81
2022-11-16T15:51:05.029Z,100045.81
2022-11-16T15:54:15.217Z,100051.84
2022-11-16T15:57:18.370Z,100048.28
2022-11-16T16:00:23.615Z,100051.84
2022-11-16T16:03:28.529Z,100048.28
2022-11-16T16:06:56.736Z,100050.81
2022-11-16T16:10:13.180Z,100045.25
2022-11-16T16:13:27.365Z,100047.72
2022-11-16T16:16:37.386Z,100037.25
2022-11-16T16:19:43.058Z,100041.69
2022-11-16T16:22:45.185Z,100039.16
2022-11-16T16:25:50.482Z,100038.28
2022-11-16T16:28:52.459Z,100039.31
2022-11-16T16:31:55.468Z,100040.19
2022-11-16T16:35:03.104Z,100037.53
2022-11-16T16:38:13.127Z,100037.72
2022-11-16T16:41:23.788Z,100044.78
2022-11-16T16:44:25.953Z,100038.66
2022-11-16T16:47:27.586Z,100036.13
2022-11-16T16:50:29.305Z,100031.88
2022-11-16T16:53:30.945Z,100034.50
2022-11-16T16:56:32.502Z,100037.16
2022-11-16T16:59:34.039Z,100035.38
2022-11-16T17:02:37.336Z,100038.81
2022-11-16T17:05:39.030Z,100044.13
2022-11-16T17:08:40.583Z,100040.72
2022-11-16T17:11:42.113Z,100026.75
2022-11-16T17:14:51.273Z,100026.75
2022-11-16T17:17:53.030Z,100027.63
2022-11-16T17:20:54.588Z,100039.03
2022-11-16T17:23:56.629Z,100039.03
2022-11-16T17:26:58.162Z,100045.16
2022-11-16T17:30:00.072Z,100046.00
2022-11-16T17:33:01.669Z,100039.03
2022-11-16T17:36:04.880Z,100038.19
2022-11-16T17:39:06.434Z,100034.69
2022-11-16T17:42:07.991Z,100034.56
2022-11-16T17:45:10.018Z,100031.13
2022-11-16T17:48:11.615Z,100031.13
2022-11-16T17:51:15.865Z,100036.41
2022-11-16T17:54:17.433Z,100020.44
2022-11-16T17:57:18.949Z,100019.56
2022-11-16T18:00:20.611Z,100021.28
2022-11-16T18:03:24.120Z,100022.16
2022-11-16T18:06:26.293Z,100025.66
2022-11-16T18:09:27.824Z,100029.91
2022-11-16T18:12:29.391Z,100029.97
2022-11-16T18:15:39.232Z,100028.47
2022-11-16T18:18:44.946Z,100032.25
2022-11-16T18:21:46.922Z,100037.63
2022-11-16T18:24:50.717Z,100039.50
2022-11-16T18:27:53.953Z,100035.25
2022-11-16T18:31:05.700Z,100030.16
2022-11-16T18:34:07.294Z,100035.72
2022-11-16T18:37:09.165Z,100034.13
2022-11-16T18:40:12.218Z,100032.59
2022-11-16T18:43:13.780Z,100023.16
2022-11-16T18:46:15.304Z,100019.00
2022-11-16T18:49:16.891Z,100020.97
2022-11-16T18:52:18.464Z,100018.53
2022-11-16T18:55:20.058Z,100019.56
2022-11-16T18:58:43.647Z,100024.06
2022-11-16T19:01:43.516Z,100019.72
2022-11-16T19:04:45.124Z,100013.69
2022-11-16T19:07:46.667Z,100010.28
2022-11-16T19:10:48.216Z,100007.75
2022-11-16T19:14:03.884Z,100004.34
2022-11-16T19:17:05.790Z,100000.00
2022-11-16T19:20:07.996Z,99998.31
2022-11-16T19:23:09.560Z,99996.53
2022-11-16T19:26:12.964Z,99994.81
2022-11-16T19:29:14.763Z,99992.16
2022-11-16T19:32:16.343Z,99987.91
2022-11-16T19:35:17.957Z,99993.19
2022-11-16T19:38:19.502Z,99988.84
2022-11-16T19:41:22.605Z,99988.09
2022-11-16T19:44:24.292Z,99978.38
2022-11-16T19:47:26.466Z,99979.25
2022-11-16T19:50:28.071Z,99981.13
2022-11-16T19:53:29.591Z,99986.41
2022-11-16T19:56:31.415Z,99980.28
2022-11-16T19:59:33.006Z,99987.25
2022-11-16T20:02:36.519Z,99980.28
2022-11-16T20:05:38.114Z,99978.56
2022-11-16T20:08:41.903Z,99976.03
2022-11-16T20:11:43.536Z,99958.47
2022-11-16T20:14:45.144Z,99967.25
2022-11-16T20:17:46.832Z,99968.09
2022-11-16T20:20:48.336Z,99970.75
2022-11-16T20:23:53.685Z,99961.97
2022-11-16T20:26:55.198Z,99962.72
2022-11-16T20:29:56.780Z,99968.00
2022-11-16T20:32:58.460Z,99981.19
2022-11-16T20:36:05.315Z,99972.34
2022-11-16T20:39:07.487Z,99962.72
2022-11-16T20:42:09.020Z,99961.03
2022-11-16T20:45:11.195Z,99972.44
2022-11-16T20:48:12.719Z,99980.34
2022-11-16T20:51:17.095Z,99969.78
2022-11-16T20:54:18.674Z,99963.69
2022-11-16T20:57:20.173Z,99961.03
2022-11-16T21:00:21.848Z,99958.41
2022-11-16T21:03:23.404Z,99955.81
2022-11-16T21:06:26.204Z,99959.31
2022-11-16T21:09:28.002Z,99947.91
2022-11-16T21:12:48.208Z,99941.78
2022-11-16T21:16:01.486Z,99949.78
2022-11-16T21:19:03.711Z,99953.28
2022-11-16T21:22:05.231Z,99942.63
2022-11-16T21:25:06.996Z,99953.00
2022-11-16T21:28:08.590Z,99951.22
2022-11-16T21:31:12.651Z,99953.88
2022-11-16T21:34:14.184Z,99947.84
2022-11-16T21:37:15.732Z,99943.47
2022-11-16T21:40:17.720Z,99945.25
2022-11-16T21:43:19.503Z,99954.91
2022-11-16T21:46:23.351Z,99955.75
2022-11-16T21:49:24.950Z,99947.91
2022-11-16T21:52:26.543Z,99952.16
2022-11-16T21:55:28.269Z,99942.56
2022-11-16T21:58:29.823Z,99922.34
2022-11-16T22:01:51.401Z,99932.00
2022-11-16T22:05:11.280Z,99923.28
2022-11-16T22:08:12.876Z,99918.09
2022-11-16T22:11:15.493Z,99913.75
2022-11-16T22:14:17.119Z,99919.16
2022-11-16T22:17:18.641Z,99932.34
2022-11-16T22:20:20.936Z,99918.28
2022-11-16T22:23:33.786Z,99922.63
2022-11-16T22:26:35.562Z,99906.78
2022-11-16T22:29:37.089Z,99914.63
2022-11-16T22:32:38.593Z,99893.41
2022-11-16T22:35:40.656Z,99898.03
2022-11-16T22:38:42.187Z,99905.00
2022-11-16T22:41:43.715Z,99907.84
2022-11-16T22:44:45.275Z,99904.44
2022-11-16T22:47:49.614Z,99894.81
2022-11-16T22:51:05.719Z,99888.59
2022-11-16T22:54:07.414Z,99884.34
2022-11-16T22:57:08.969Z,99872.19
2022-11-16T23:00:11.166Z,99871.50
2022-11-16T23:03:12.851Z,99868.97
2022-11-16T23:06:14.837Z,99872.47
2022-11-16T23:09:16.348Z,99847.00
2022-11-16T23:12:36.440Z,99859.34
2022-11-16T23:15:49.873Z,99859.34
2022-11-16T23:18:51.544Z,99851.53
2022-11-16T23:22:11.668Z,99840.22
2022-11-16T23:25:32.098Z,99825.31
2022-11-16T23:28:33.742Z,99811.38
2022-11-16T23:31:35.979Z,99802.59
2022-11-16T23:34:37.523Z,99810.63
2022-11-16T23:37:59.081Z,99795.81
2022-11-16T23:41:20.627Z,99802.13
2022-11-16T23:44:22.165Z,99797.03
2022-11-16T23:47:23.875Z,99790.06
2022-11-16T23:50:25.476Z,99792.78
2022-11-16T23:53:27.004Z,99795.53
2022-11-16T23:56:28.866Z,99795.53
2022-11-16T23:59:30.466Z,99786.75
